Time;durP1;ratioP1;P1;durP2;ratioP2;P2;SDS_P1;SDS_P2;PMS_P1;PMS_P2;Temp;Humidity;BMP_temperature;BMP_pressure;BME280_temperature;BME280_humidity;BME280_pressure;Samples;Min_cycle;Max_cycle;Signal;HPM_P1;HPM_P2
2021/01/23 00:01:28;;;;;;;0.20;0.10;;;;;;;3.81;100.00;98411.38;5036993;28;20467;-78
2021/01/23 00:03:54;;;;;;;0.20;0.10;;;;;;;4.08;100.00;98430.69;5038612;28;20471;-79
2021/01/23 00:06:21;;;;;;;0.20;0.10;;;;;;;4.00;100.00;98427.44;5043064;28;20810;-78
2021/01/23 00:08:47;;;;;;;0.20;0.10;;;;;;;3.97;100.00;98424.91;5042092;28;20451;-79
2021/01/23 00:11:13;;;;;;;0.20;0.10;;;;;;;4.07;100.00;98442.97;5030076;28;20584;-79
2021/01/23 00:13:39;;;;;;;0.50;0.40;;;;;;;3.92;100.00;98443.44;5042057;28;20451;-79
2021/01/23 00:16:06;;;;;;;0.20;0.10;;;;;;;3.98;100.00;98448.53;5039084;28;20482;-80
2021/01/23 00:18:32;;;;;;;0.20;0.10;;;;;;;3.74;100.00;98430.91;5037933;28;20444;-78
2021/01/23 00:20:58;;;;;;;0.20;0.17;;;;;;;3.97;100.00;98443.28;5043538;28;20503;-79
2021/01/23 00:23:25;;;;;;;0.20;0.10;;;;;;;3.98;100.00;98448.53;5043605;28;20488;-78
2021/01/23 00:25:51;;;;;;;0.20;0.10;;;;;;;3.94;100.00;98448.66;5048255;28;20807;-79
2021/01/23 00:28:17;;;;;;;0.20;0.10;;;;;;;3.96;100.00;98444.22;5035135;28;20862;-79
2021/01/23 00:30:43;;;;;;;0.20;0.10;;;;;;;3.95;100.00;98453.00;5051356;28;20557;-80
2021/01/23 00:33:09;;;;;;;0.20;0.10;;;;;;;3.96;100.00;98449.47;5051998;28;20479;-79
2021/01/23 00:35:36;;;;;;;0.20;0.10;;;;;;;4.10;100.00;98449.88;5037807;28;20460;-80
2021/01/23 00:38:03;;;;;;;0.20;0.17;;;;;;;3.90;100.00;98453.16;5060515;28;20471;-79
2021/01/23 00:40:29;;;;;;;0.20;0.10;;;;;;;4.00;100.00;98448.47;5038311;28;20448;-76
2021/01/23 00:42:55;;;;;;;0.20;0.10;;;;;;;4.09;100.00;98471.81;5038519;28;20552;-79
2021/01/23 00:45:21;;;;;;;0.20;0.10;;;;;;;4.01;100.00;98453.69;5038144;28;20444;-80
2021/01/23 00:47:48;;;;;;;0.20;0.10;;;;;;;4.02;100.00;98465.06;5037218;28;20456;-79
2021/01/23 00:50:14;;;;;;;0.20;0.20;;;;;;;4.01;100.00;98464.19;5043001;28;20583;-80
2021/01/23 00:52:40;;;;;;;0.20;0.10;;;;;;;4.07;100.00;98457.88;5044152;28;20502;-79
2021/01/23 00:55:07;;;;;;;0.20;0.10;;;;;;;3.97;100.00;98465.19;5034090;28;20863;-79
2021/01/23 00:57:33;;;;;;;0.20;0.10;;;;;;;3.98;100.00;98469.56;5044151;28;20471;-80
2021/01/23 00:59:59;;;;;;;0.20;0.10;;;;;;;3.83;100.00;98465.63;5045161;28;20452;-79
2021/01/23 01:02:26;;;;;;;0.20;0.10;;;;;;;3.89;100.00;98474.22;5045549;28;20467;-78
2021/01/23 01:04:53;;;;;;;0.20;0.20;;;;;;;3.78;100.00;98488.56;5028383;28;20456;-79
2021/01/23 01:07:19;;;;;;;0.20;0.20;;;;;;;3.77;100.00;98481.59;5044783;28;20459;-79
2021/01/23 01:09:45;;;;;;;0.30;0.20;;;;;;;3.71;100.00;98481.78;5038580;28;20514;-78
2021/01/23 01:12:11;;;;;;;0.20;0.10;;;;;;;3.78;100.00;98478.03;5061708;22;20507;-53
2021/01/23 01:14:37;;;;;;;0.20;0.10;;;;;;;3.76;100.00;98479.00;5027724;28;20468;-53
2021/01/23 01:17:03;;;;;;;0.20;0.10;;;;;;;3.79;100.00;98485.00;5014669;28;20468;-53
2021/01/23 01:19:30;;;;;;;0.20;0.10;;;;;;;3.89;100.00;98485.59;5002231;28;20941;-53
2021/01/23 01:21:56;;;;;;;0.20;0.17;;;;;;;3.84;100.00;98477.88;5013782;28;20887;-53
2021/01/23 01:24:22;;;;;;;0.20;0.10;;;;;;;3.80;100.00;98486.72;5011431;28;20453;-54
2021/01/23 01:26:48;;;;;;;0.20;0.10;;;;;;;3.77;100.00;98483.34;5013568;28;20479;-52
2021/01/23 01:29:14;;;;;;;0.20;0.10;;;;;;;3.76;100.00;98495.63;5002176;28;20448;-52
2021/01/23 01:31:40;;;;;;;0.20;0.10;;;;;;;3.81;100.00;98493.72;5026343;28;20951;-52
2021/01/23 01:34:06;;;;;;;0.20;0.10;;;;;;;3.91;100.00;98490.81;5007590;28;20993;-52
2021/01/23 01:36:33;;;;;;;0.20;0.10;;;;;;;3.76;100.00;98495.63;5009239;28;20482;-52
2021/01/23 01:38:59;;;;;;;0.20;0.17;;;;;;;3.79;100.00;98492.03;5007522;28;20453;-52
2021/01/23 01:41:25;;;;;;;0.20;0.10;;;;;;;3.79;100.00;98494.66;5009531;28;20483;-52
2021/01/23 01:43:51;;;;;;;0.20;0.10;;;;;;;3.76;100.00;98494.78;5014711;28;20483;-52
2021/01/23 01:46:17;;;;;;;0.20;0.10;;;;;;;3.82;100.00;98500.69;5001098;28;20473;-52
2021/01/23 01:48:47;;;;;;;0.20;0.10;;;;;;;3.68;100.00;98497.63;5014464;28;20543;-52
2021/01/23 01:51:15;;;;;;;0.20;0.10;;;;;;;3.59;100.00;98507.56;5012526;28;20519;-51
2021/01/23 01:53:43;;;;;;;0.20;0.10;;;;;;;3.65;100.00;98507.34;5003709;28;20872;-52
2021/01/23 01:56:09;;;;;;;0.20;0.10;;;;;;;3.60;100.00;98502.25;5012382;28;20989;-52
2021/01/23 01:58:35;;;;;;;0.20;0.10;;;;;;;3.62;100.00;98505.69;5004069;28;20448;-52
2021/01/23 02:01:02;;;;;;;0.20;0.10;;;;;;;3.57;100.00;98507.59;5014739;28;20499;-52
2021/01/23 02:03:50;;;;;;;0.20;0.10;;;;;;;3.62;100.00;98504.81;5005891;28;20448;-52
2021/01/23 02:06:41;;;;;;;1.60;1.60;;;;;;;3.58;100.00;98506.69;5012809;28;20515;-52
2021/01/23 02:09:19;;;;;;;0.20;0.10;;;;;;;3.59;100.00;98513.66;5013369;28;20862;-52
2021/01/23 02:12:32;;;;;;;0.20;0.10;;;;;;;3.58;100.00;98516.34;5004236;28;20464;-52
2021/01/23 02:15:19;;;;;;;0.20;0.10;;;;;;;3.55;100.00;98506.75;4986289;28;20511;-52
2021/01/23 02:17:53;;;;;;;0.20;0.10;;;;;;;3.60;100.00;98514.53;5001514;28;20792;-52
2021/01/23 02:20:43;;;;;;;0.20;0.10;;;;;;;3.53;100.00;98522.56;5014640;28;20441;-52
2021/01/23 02:23:16;;;;;;;0.20;0.10;;;;;;;3.50;100.00;98524.44;5005139;28;20438;-52
2021/01/23 02:25:57;;;;;;;0.20;0.20;;;;;;;3.45;100.00;98524.56;5012302;28;20468;-52
2021/01/23 02:29:06;;;;;;;0.20;0.10;;;;;;;3.46;100.00;98531.53;5001828;28;20453;-52
2021/01/23 02:31:41;;;;;;;0.20;0.10;;;;;;;3.53;100.00;98532.22;5005840;28;20932;-52
2021/01/23 02:34:10;;;;;;;0.20;0.10;;;;;;;3.64;100.00;98537.16;5002121;28;20444;-52
2021/01/23 02:36:39;;;;;;;0.20;0.10;;;;;;;3.79;100.00;98542.81;5007624;28;21009;-53
2021/01/23 02:39:07;;;;;;;0.20;0.10;;;;;;;3.95;100.00;98535.34;5005736;28;20445;-53
2021/01/23 02:41:34;;;;;;;0.20;0.10;;;;;;;4.00;100.00;98535.22;5008602;28;20444;-52
2021/01/23 02:44:00;;;;;;;0.20;0.10;;;;;;;4.04;100.00;98553.47;5013903;28;20452;-52
2021/01/23 02:46:26;;;;;;;0.20;0.10;;;;;;;4.10;100.00;98558.53;4999821;28;21029;-52
2021/01/23 02:48:53;;;;;;;0.20;0.10;;;;;;;4.08;100.00;98543.72;5013155;28;20519;-55
2021/01/23 02:51:35;;;;;;;0.20;0.10;;;;;;;4.19;100.00;98546.88;5010453;28;20907;-52
2021/01/23 02:54:07;;;;;;;0.20;0.10;;;;;;;4.09;100.00;98533.16;5003002;28;20440;-52
2021/01/23 02:56:35;;;;;;;0.20;0.10;;;;;;;4.10;100.00;98544.53;5007897;28;20465;-52
2021/01/23 02:59:05;;;;;;;0.20;0.20;;;;;;;3.99;100.00;98546.66;5005052;28;20456;-52
2021/01/23 03:01:37;;;;;;;0.20;0.10;;;;;;;3.97;100.00;98551.06;5013207;28;20441;-52
2021/01/23 03:04:04;;;;;;;0.20;0.10;;;;;;;3.92;100.00;98551.22;5000026;28;20947;-52
2021/01/23 03:06:31;;;;;;;0.20;0.10;;;;;;;3.81;100.00;98548.91;5005147;28;20474;-52
2021/01/23 03:08:57;;;;;;;0.20;0.10;;;;;;;3.76;100.00;98561.31;4993943;28;20457;-52
2021/01/23 03:11:24;;;;;;;0.30;0.20;;;;;;;3.75;100.00;98556.09;5013736;28;20546;-52
2021/01/23 03:13:50;;;;;;;0.20;0.10;;;;;;;3.67;100.00;98553.69;5012427;28;20453;-52
2021/01/23 03:16:16;;;;;;;0.20;0.10;;;;;;;3.59;100.00;98555.69;5001082;28;20476;-52
2021/01/23 03:18:42;;;;;;;0.20;0.10;;;;;;;3.50;100.00;98559.44;5014703;28;20452;-52
2021/01/23 03:21:08;;;;;;;0.20;0.10;;;;;;;3.47;100.00;98556.91;5007411;28;21013;-52
2021/01/23 03:23:35;;;;;;;0.20;0.10;;;;;;;3.35;100.00;98556.38;5008044;28;20452;-52
2021/01/23 03:26:02;;;;;;;0.20;0.20;;;;;;;3.31;100.00;98558.22;5015690;28;20472;-52
2021/01/23 03:28:29;;;;;;;0.20;0.10;;;;;;;3.18;100.00;98556.84;5005146;28;20459;-52
2021/01/23 03:30:55;;;;;;;0.20;0.10;;;;;;;3.09;100.00;98551.81;5028483;28;20537;-52
2021/01/23 03:33:21;;;;;;;0.20;0.10;;;;;;;3.15;100.00;98554.28;5025590;28;20482;-53
2021/01/23 03:35:47;;;;;;;0.20;0.10;;;;;;;3.08;100.00;98553.59;5006030;28;20477;-52
2021/01/23 03:38:14;;;;;;;0.20;0.10;;;;;;;3.09;100.00;98560.56;5016916;28;20523;-52
2021/01/23 03:40:40;;;;;;;0.20;0.10;;;;;;;3.16;100.00;98561.28;5005696;28;20449;-53
2021/01/23 03:43:07;;;;;;;0.20;0.10;;;;;;;2.99;100.00;98564.31;5017696;28;20530;-52
2021/01/23 03:45:33;;;;;;;0.20;0.10;;;;;;;2.91;100.00;98561.06;5010085;28;20453;-52
2021/01/23 03:47:59;;;;;;;0.20;0.20;;;;;;;2.92;100.00;98557.53;5012127;28;20452;-52
2021/01/23 03:50:25;;;;;;;0.20;0.10;;;;;;;2.77;100.00;98550.03;5016222;28;20574;-52
2021/01/23 03:52:51;;;;;;;0.20;0.10;;;;;;;2.93;100.00;98552.22;5001947;28;20453;-52
2021/01/23 03:55:17;;;;;;;0.20;0.20;;;;;;;2.90;100.00;98561.94;5009817;28;20457;-52
2021/01/23 03:57:43;;;;;;;0.20;0.10;;;;;;;2.73;100.00;98559.72;5003924;28;20472;-52
2021/01/23 04:00:10;;;;;;;0.20;0.10;;;;;;;2.83;100.00;98557.75;5017694;28;20444;-51
2021/01/23 04:02:36;;;;;;;0.20;0.20;;;;;;;2.82;100.00;98561.28;5015416;28;20456;-52
2021/01/23 04:05:04;;;;;;;0.20;0.10;;;;;;;2.78;100.00;98555.25;5005934;28;20456;-52
2021/01/23 04:07:30;;;;;;;0.20;0.20;;;;;;;2.80;100.00;98553.44;5016989;28;20472;-52
2021/01/23 04:09:56;;;;;;;0.20;0.20;;;;;;;2.71;100.00;98560.69;5017194;28;20538;-52
2021/01/23 04:12:22;;;;;;;0.20;0.10;;;;;;;2.58;100.00;98558.34;5003545;28;20963;-52
2021/01/23 04:14:48;;;;;;;0.20;0.10;;;;;;;2.40;100.00;98555.31;5016840;28;20883;-52
2021/01/23 04:17:14;;;;;;;0.20;0.10;;;;;;;2.48;100.00;98556.88;5016879;28;20536;-52
2021/01/23 04:19:41;;;;;;;0.20;0.20;;;;;;;2.40;100.00;98561.44;5008127;28;20460;-52
2021/01/23 04:22:07;;;;;;;0.20;0.13;;;;;;;2.37;100.00;98558.88;5012683;28;20510;-52
2021/01/23 04:24:33;;;;;;;0.20;0.20;;;;;;;2.36;100.00;98552.78;5016949;28;20452;-52
2021/01/23 04:26:59;;;;;;;0.20;0.10;;;;;;;2.30;100.00;98547.66;5014718;28;20534;-52
2021/01/23 04:29:25;;;;;;;0.20;0.10;;;;;;;2.32;100.00;98545.00;5005743;28;20483;-52
2021/01/23 04:31:51;;;;;;;0.20;0.10;;;;;;;2.24;100.00;98552.22;5029489;28;20795;-52
2021/01/23 04:34:17;;;;;;;0.20;0.10;;;;;;;2.28;100.00;98552.09;5007789;28;20452;-51
2021/01/23 04:36:44;;;;;;;0.20;0.10;;;;;;;2.20;100.00;98547.94;5011909;28;21063;-52
2021/01/23 04:39:10;;;;;;;0.20;0.13;;;;;;;2.26;100.00;98550.41;5016536;28;20459;-51
2021/01/23 04:41:36;;;;;;;0.20;0.10;;;;;;;2.18;100.00;98542.72;5003257;28;20450;-52
2021/01/23 04:44:04;;;;;;;0.20;0.10;;;;;;;2.14;100.00;98542.81;5016414;28;20958;-52
2021/01/23 04:46:31;;;;;;;0.20;0.10;;;;;;;1.99;100.00;98542.28;5016333;28;20469;-52
2021/01/23 04:48:57;;;;;;;0.20;0.10;;;;;;;2.05;100.00;98544.75;5007420;28;20453;-52
2021/01/23 04:51:25;;;;;;;0.20;0.10;;;;;;;2.01;100.00;98542.25;5012574;28;20492;-52
2021/01/23 04:53:52;;;;;;;0.20;0.10;;;;;;;2.01;100.00;98545.72;5016723;28;20511;-52
2021/01/23 04:56:18;;;;;;;0.20;0.10;;;;;;;2.01;100.00;98550.97;5009496;28;20918;-52
2021/01/23 04:58:45;;;;;;;0.67;0.67;;;;;;;2.02;100.00;98547.44;5005522;28;20453;-52
2021/01/23 05:01:14;;;;;;;0.20;0.10;;;;;;;1.85;100.00;98540.84;5015500;28;20503;-51
2021/01/23 05:04:00;;;;;;;0.20;0.10;;;;;;;1.95;100.00;98542.38;5006115;28;20449;-52
2021/01/23 05:06:27;;;;;;;0.80;0.77;;;;;;;1.88;100.00;98544.25;5014762;28;20515;-52
2021/01/23 05:08:55;;;;;;;0.20;0.10;;;;;;;1.88;100.00;98536.41;5014589;28;20460;-52
2021/01/23 05:11:21;;;;;;;0.20;0.10;;;;;;;1.87;100.00;98531.22;5002224;28;20500;-51
2021/01/23 05:14:10;;;;;;;0.20;0.10;;;;;;;1.95;100.00;98524.91;5015673;28;20444;-52
2021/01/23 05:16:36;;;;;;;0.20;0.10;;;;;;;1.99;100.00;98523.94;5005238;28;20473;-51
2021/01/23 05:19:04;;;;;;;0.20;0.10;;;;;;;1.87;100.00;98528.59;5001494;28;20476;-52
2021/01/23 05:21:34;;;;;;;4.00;3.70;;;;;;;1.71;100.00;98528.06;5015471;28;20453;-52
2021/01/23 05:24:13;;;;;;;0.20;0.10;;;;;;;1.74;100.00;98528.84;5011483;28;20446;-52
2021/01/23 05:26:41;;;;;;;0.20;0.10;;;;;;;1.66;100.00;98530.78;5014223;28;20527;-52
2021/01/23 05:29:12;;;;;;;0.20;0.20;;;;;;;1.67;100.00;98529.03;5001887;28;20448;-52
2021/01/23 05:31:41;;;;;;;0.20;0.10;;;;;;;1.63;100.00;98533.44;5028271;28;20838;-52
2021/01/23 05:34:30;;;;;;;0.20;0.10;;;;;;;1.40;100.00;98530.47;5007597;28;20934;-52
2021/01/23 05:36:59;;;;;;;9.23;8.33;;;;;;;1.81;100.00;98528.72;5012329;28;20526;-51
2021/01/23 05:40:00;;;;;;;0.20;0.17;;;;;;;1.72;100.00;98533.25;5004332;28;20494;-51
2021/01/23 05:42:28;;;;;;;0.20;0.10;;;;;;;1.56;100.00;98531.00;4963195;28;20557;-51
2021/01/23 05:45:06;;;;;;;0.20;0.10;;;;;;;1.55;100.00;98530.16;5004313;28;20451;-52
2021/01/23 05:47:32;;;;;;;0.20;0.20;;;;;;;1.43;100.00;98526.03;5005401;28;21005;-51
2021/01/23 05:49:59;;;;;;;0.20;0.10;;;;;;;1.37;100.00;98530.50;5014223;28;21024;-52
2021/01/23 05:52:27;;;;;;;0.20;0.20;;;;;;;1.85;100.00;98533.00;5003656;28;20450;-51
2021/01/23 05:54:53;;;;;;;0.20;0.10;;;;;;;1.51;100.00;98523.25;5012471;28;20457;-52
2021/01/23 05:57:20;;;;;;;0.20;0.10;;;;;;;1.76;100.00;98526.19;5003610;28;20473;-52
2021/01/23 05:59:46;;;;;;;0.20;0.10;;;;;;;1.81;100.00;98526.97;5013098;28;20448;-52
2021/01/23 06:02:14;;;;;;;0.20;0.10;;;;;;;1.77;100.00;98543.63;5014814;28;20487;-52
2021/01/23 06:04:42;;;;;;;0.20;0.10;;;;;;;1.81;100.00;98540.06;5001340;28;20463;-51
2021/01/23 06:07:09;;;;;;;0.20;0.10;;;;;;;1.67;100.00;98539.50;5014635;28;20888;-52
2021/01/23 06:09:40;;;;;;;0.20;0.10;;;;;;;1.78;100.00;98547.97;5009475;28;20536;-52
2021/01/23 06:12:33;;;;;;;0.20;0.10;;;;;;;1.77;100.00;98547.09;5006889;28;20511;-52
2021/01/23 06:14:59;;;;;;;0.20;0.10;;;;;;;1.98;100.00;98548.41;5012543;28;20877;-52
2021/01/23 06:17:47;;;;;;;0.20;0.10;;;;;;;1.92;100.00;98553.81;5010944;28;20473;-51
2021/01/23 06:20:41;;;;;;;0.20;0.10;;;;;;;2.04;100.00;98550.88;5007047;28;21019;-51
2021/01/23 06:23:12;;;;;;;0.20;0.10;;;;;;;2.10;100.00;98549.03;5014800;28;20452;-51
2021/01/23 06:25:51;;;;;;;0.20;0.10;;;;;;;2.24;100.00;98554.81;5014396;28;20539;-52
2021/01/23 06:28:37;;;;;;;0.20;0.10;;;;;;;2.23;100.00;98551.34;5002016;28;20481;-52
2021/01/23 06:31:22;;;;;;;0.20;0.10;;;;;;;2.29;100.00;98543.31;5011752;28;20487;-52
2021/01/23 06:33:49;;;;;;;0.20;0.10;;;;;;;2.36;100.00;98547.53;5011326;28;20472;-52
2021/01/23 06:36:15;;;;;;;0.30;0.23;;;;;;;2.42;100.00;98550.91;5005901;28;20542;-52
2021/01/23 06:39:00;;;;;;;0.20;0.10;;;;;;;2.56;100.00;98557.53;5008317;28;20449;-52
2021/01/23 06:41:35;;;;;;;0.20;0.10;;;;;;;2.50;100.00;98559.47;5008492;28;20510;-52
2021/01/23 06:44:08;;;;;;;0.20;0.10;;;;;;;2.66;100.00;98556.41;5014229;28;20531;-51
2021/01/23 06:46:35;;;;;;;0.20;0.13;;;;;;;2.98;100.00;98554.72;5001258;28;20550;-51
2021/01/23 06:49:02;;;;;;;0.57;0.57;;;;;;;2.93;100.00;98567.13;5012789;28;20819;-51
2021/01/23 06:51:28;;;;;;;0.20;0.10;;;;;;;2.85;100.00;98576.94;5009632;28;20485;-51
2021/01/23 06:54:11;;;;;;;1.83;1.40;;;;;;;2.83;100.00;98576.97;5004000;28;20874;-51
2021/01/23 06:56:37;;;;;;;0.20;0.10;;;;;;;2.82;100.00;98567.38;5008389;28;20982;-51
2021/01/23 06:59:03;;;;;;;0.20;0.10;;;;;;;2.86;100.00;98565.53;5006104;28;20499;-51
2021/01/23 07:01:29;;;;;;;0.20;0.10;;;;;;;3.06;100.00;98565.91;5013468;28;20534;-51
2021/01/23 07:03:55;;;;;;;0.20;0.10;;;;;;;3.11;100.00;98558.75;5001663;28;20503;-51
2021/01/23 07:06:29;;;;;;;0.20;0.10;;;;;;;3.30;100.00;98563.53;5012486;28;20542;-51
2021/01/23 07:08:55;;;;;;;0.20;0.10;;;;;;;3.48;100.00;98563.00;5013196;28;20448;-51
2021/01/23 07:11:21;;;;;;;0.40;0.40;;;;;;;3.56;100.00;98561.91;5000604;28;20503;-51
2021/01/23 07:14:06;;;;;;;0.20;0.10;;;;;;;3.62;100.00;98552.97;5013711;28;20812;-51
2021/01/23 07:16:37;;;;;;;0.20;0.10;;;;;;;3.71;100.00;98552.72;5004509;28;20476;-51
2021/01/23 07:19:07;;;;;;;0.20;0.10;;;;;;;3.72;100.00;98553.56;5010858;28;20961;-51
2021/01/23 07:21:38;;;;;;;0.20;0.10;;;;;;;3.74;100.00;98544.75;5014094;28;20520;-51
2021/01/23 07:24:08;;;;;;;0.20;0.10;;;;;;;3.65;100.00;98544.13;5000820;28;20490;-51
2021/01/23 07:26:35;;;;;;;0.30;0.20;;;;;;;3.80;100.00;98533.19;5013830;28;20478;-51
2021/01/23 07:29:03;;;;;;;0.20;0.10;;;;;;;3.84;100.00;98534.81;5000261;28;20452;-51
2021/01/23 07:31:31;;;;;;;2.20;2.10;;;;;;;3.85;100.00;98537.41;5025689;28;20545;-51
2021/01/23 07:34:00;;;;;;;0.20;0.13;;;;;;;3.91;100.00;98530.22;5008297;28;20454;-51
2021/01/23 07:36:37;;;;;;;0.20;0.10;;;;;;;3.94;100.00;98522.25;5005811;28;20856;-51
2021/01/23 07:39:07;;;;;;;0.77;0.77;;;;;;;3.89;100.00;98532.91;5001957;28;20941;-51
2021/01/23 07:41:35;;;;;;;0.20;0.10;;;;;;;3.96;100.00;98530.94;5012712;28;20440;-51
2021/01/23 07:44:05;;;;;;;0.20;0.10;;;;;;;3.96;100.00;98534.44;4993752;28;20556;-51
2021/01/23 07:46:33;;;;;;;2.00;1.90;;;;;;;3.95;100.00;98530.09;5008681;28;20514;-51
2021/01/23 07:49:00;;;;;;;0.20;0.10;;;;;;;3.98;100.00;98524.75;5013731;28;20453;-51
2021/01/23 07:51:28;;;;;;;0.20;0.20;;;;;;;4.14;100.00;98520.75;4999730;28;20559;-51
2021/01/23 07:54:04;;;;;;;0.20;0.13;;;;;;;4.27;100.00;98515.97;5012662;28;20448;-51
2021/01/23 07:56:30;;;;;;;0.20;0.10;;;;;;;4.21;100.00;98512.66;5012449;28;20523;-51
2021/01/23 07:58:56;;;;;;;0.20;0.10;;;;;;;4.24;100.00;98517.81;5001564;28;20947;-51
2021/01/23 08:01:23;;;;;;;0.20;0.10;;;;;;;4.26;100.00;98514.25;5009922;28;20445;-51
2021/01/23 08:03:49;;;;;;;0.20;0.10;;;;;;;4.29;100.00;98516.75;5012473;28;20452;-51
2021/01/23 08:06:25;;;;;;;0.20;0.20;;;;;;;4.32;100.00;98510.53;4999422;28;20480;-51
2021/01/23 08:08:53;;;;;;;0.20;0.13;;;;;;;4.37;100.00;98522.63;5011917;28;20944;-52
2021/01/23 08:11:35;;;;;;;0.20;0.20;;;;;;;4.34;100.00;98520.09;5006143;28;20501;-51
2021/01/23 08:14:10;;;;;;;0.30;0.23;;;;;;;4.38;100.00;98520.84;5008948;28;20444;-51
2021/01/23 08:16:49;;;;;;;0.30;0.10;;;;;;;4.40;100.00;98524.31;5015644;28;20523;-51
2021/01/23 08:19:16;;;;;;;0.30;0.30;;;;;;;4.43;100.00;98527.69;5002584;28;20494;-51
2021/01/23 08:21:42;;;;;;;0.20;0.20;;;;;;;4.48;100.00;98524.91;5015956;28;20456;-51
2021/01/23 08:24:28;;;;;;;0.20;0.10;;;;;;;4.52;100.00;98526.53;5013178;28;20457;-51
2021/01/23 08:26:59;;;;;;;0.20;0.10;;;;;;;4.48;100.00;98527.53;5014987;28;20473;-51
2021/01/23 08:29:25;;;;;;;3.70;1.33;;;;;;;4.44;100.00;98521.53;5004204;28;20456;-51
2021/01/23 08:32:04;;;;;;;0.20;0.10;;;;;;;4.57;100.00;98526.41;5029153;28;21069;-51
2021/01/23 08:34:30;;;;;;;0.20;0.10;;;;;;;4.52;100.00;98529.16;5005296;28;20477;-51
2021/01/23 08:36:57;;;;;;;0.30;0.20;;;;;;;4.56;100.00;98522.91;5012458;28;20562;-51
2021/01/23 08:39:23;;;;;;;0.20;0.20;;;;;;;4.60;100.00;98518.38;5005327;28;20507;-51
2021/01/23 08:41:49;;;;;;;0.20;0.10;;;;;;;4.57;100.00;98510.59;5010877;28;20884;-51
2021/01/23 08:44:16;;;;;;;0.20;0.10;;;;;;;4.78;100.00;98514.28;5015466;28;20452;-51
2021/01/23 08:46:43;;;;;;;0.20;0.10;;;;;;;4.59;100.00;98519.31;5001991;28;20472;-51
2021/01/23 08:49:10;;;;;;;0.20;0.20;;;;;;;4.63;100.00;98523.53;5015681;28;20449;-51
2021/01/23 08:51:37;;;;;;;0.20;0.20;;;;;;;4.60;100.00;98516.63;5011106;28;20501;-52
2021/01/23 08:54:04;;;;;;;0.30;0.20;;;;;;;4.64;100.00;98512.09;5006209;28;20449;-52
2021/01/23 08:56:30;;;;;;;0.20;0.20;;;;;;;4.64;100.00;98514.75;5010178;28;20990;-51
2021/01/23 08:58:56;;;;;;;0.30;0.30;;;;;;;4.86;100.00;98507.00;5006078;28;20523;-51
2021/01/23 09:01:23;;;;;;;0.20;0.20;;;;;;;4.78;100.00;98503.75;5014591;28;20444;-52
2021/01/23 09:03:49;;;;;;;0.20;0.17;;;;;;;4.86;100.00;98499.94;5003909;28;20457;-52
2021/01/23 09:06:15;;;;;;;1.07;1.07;;;;;;;4.71;100.00;98500.47;5012582;28;20840;-52
2021/01/23 09:08:41;;;;;;;0.20;0.10;;;;;;;4.79;100.00;98501.06;5014526;28;20448;-52
2021/01/23 09:11:07;;;;;;;0.20;0.10;;;;;;;4.79;100.00;98497.56;4999896;28;20546;-53
2021/01/23 09:13:34;;;;;;;0.20;0.10;;;;;;;4.84;100.00;98493.03;5013029;28;20930;-52
2021/01/23 09:16:00;;;;;;;0.20;0.10;;;;;;;4.80;100.00;98499.28;5010772;28;20501;-51
2021/01/23 09:18:26;;;;;;;0.20;0.10;;;;;;;4.83;100.00;98496.56;5006639;28;20499;-52
2021/01/23 09:20:55;;;;;;;0.20;0.20;;;;;;;4.87;100.00;98492.91;5014979;28;20476;-51
2021/01/23 09:23:21;;;;;;;0.20;0.10;;;;;;;4.92;100.00;98490.97;5003045;28;20456;-52
2021/01/23 09:25:47;;;;;;;0.20;0.10;;;;;;;4.92;100.00;98493.59;5010741;28;20476;-52
2021/01/23 09:28:13;;;;;;;0.20;0.10;;;;;;;4.99;100.00;98492.50;5002717;28;20818;-52
2021/01/23 09:30:39;;;;;;;0.20;0.10;;;;;;;5.00;100.00;98500.34;5017190;28;20487;-52
2021/01/23 09:33:05;;;;;;;0.20;0.13;;;;;;;4.99;100.00;98495.97;5021351;28;20453;-52
2021/01/23 09:35:32;;;;;;;0.20;0.10;;;;;;;5.00;100.00;98505.59;5000443;28;20453;-52
2021/01/23 09:37:58;;;;;;;0.30;0.10;;;;;;;4.99;100.00;98495.13;5014018;28;20468;-52
2021/01/23 09:40:24;;;;;;;0.20;0.10;;;;;;;4.99;100.00;98490.72;5000297;28;20452;-52
2021/01/23 09:42:50;;;;;;;0.20;0.10;;;;;;;4.94;100.00;98483.91;5013438;28;20456;-52
2021/01/23 09:45:17;;;;;;;0.23;0.13;;;;;;;4.99;100.00;98487.22;5007486;28;20802;-52
2021/01/23 09:47:43;;;;;;;0.60;0.60;;;;;;;5.20;100.00;98482.94;5006596;28;20477;-52
2021/01/23 09:50:09;;;;;;;0.20;0.20;;;;;;;5.10;100.00;98485.06;5012251;28;20507;-52
2021/01/23 09:52:36;;;;;;;0.20;0.20;;;;;;;5.08;100.00;98488.69;5000917;28;20457;-52
2021/01/23 09:55:03;;;;;;;0.20;0.10;;;;;;;5.09;100.00;98479.88;5012861;28;20453;-52
2021/01/23 09:57:30;;;;;;;0.20;0.10;;;;;;;5.12;100.00;98483.25;5000910;28;20479;-52
2021/01/23 09:59:56;;;;;;;0.20;0.20;;;;;;;5.15;100.00;98471.75;5013132;28;20457;-52
2021/01/23 10:02:22;;;;;;;0.20;0.20;;;;;;;5.16;100.00;98468.19;5013265;28;20444;-53
2021/01/23 10:04:49;;;;;;;0.20;0.10;;;;;;;5.20;100.00;98475.91;4998997;28;20964;-52
2021/01/23 10:07:15;;;;;;;0.20;0.20;;;;;;;5.25;100.00;98470.50;5013020;28;20480;-52
2021/01/23 10:09:41;;;;;;;0.20;0.10;;;;;;;5.18;100.00;98463.72;5007495;28;20457;-52
2021/01/23 10:12:07;;;;;;;0.20;0.20;;;;;;;5.20;100.00;98469.78;5005856;28;20496;-52
2021/01/23 10:14:33;;;;;;;0.20;0.20;;;;;;;5.21;100.00;98461.84;5012964;28;20849;-51
2021/01/23 10:16:59;;;;;;;0.20;0.10;;;;;;;5.16;100.00;98462.91;5000937;28;20877;-52
2021/01/23 10:19:25;;;;;;;0.37;0.37;;;;;;;5.19;100.00;98453.13;5012182;28;20453;-52
2021/01/23 10:21:52;;;;;;;0.20;0.20;;;;;;;5.20;100.00;98453.97;5013317;28;20444;-52
2021/01/23 10:24:18;;;;;;;0.20;0.10;;;;;;;5.19;100.00;98458.41;4999596;28;20484;-52
2021/01/23 10:26:44;;;;;;;0.20;0.10;;;;;;;5.24;100.00;98451.19;5013009;28;20989;-52
2021/01/23 10:29:13;;;;;;;0.30;0.20;;;;;;;5.22;100.00;98444.28;5006558;28;20829;-52
2021/01/23 10:31:39;;;;;;;0.40;0.40;;;;;;;5.27;100.00;98439.69;5020189;28;21008;-52
2021/01/23 10:34:06;;;;;;;0.20;0.10;;;;;;;5.34;100.00;98435.88;5005912;28;20472;-52
2021/01/23 10:36:32;;;;;;;0.20;0.20;;;;;;;5.27;100.00;98431.78;5006166;28;20538;-52
2021/01/23 10:38:58;;;;;;;0.47;0.43;;;;;;;5.31;100.00;98426.34;5005948;28;20539;-52
2021/01/23 10:41:24;;;;;;;0.20;0.20;;;;;;;5.29;100.00;98420.28;5006367;28;20448;-53
2021/01/23 10:43:51;;;;;;;2.73;2.53;;;;;;;5.40;100.00;98419.88;5012537;28;20449;-52
2021/01/23 10:46:17;;;;;;;0.30;0.20;;;;;;;5.35;100.00;98420.06;4999552;28;20469;-53
2021/01/23 10:48:43;;;;;;;0.20;0.10;;;;;;;5.44;100.00;98412.72;5012676;28;20483;-52
2021/01/23 10:51:09;;;;;;;0.20;0.10;;;;;;;5.46;100.00;98408.22;5012580;28;20500;-52
2021/01/23 10:53:36;;;;;;;0.30;0.20;;;;;;;5.46;100.00;98406.44;4998389;28;20457;-53
2021/01/23 10:56:04;;;;;;;0.20;0.10;;;;;;;5.52;100.00;98402.75;5011881;28;21055;-53
2021/01/23 10:58:31;;;;;;;0.23;0.20;;;;;;;5.60;100.00;98412.06;4992744;28;20545;-53
2021/01/23 11:00:57;;;;;;;0.20;0.13;;;;;;;5.54;100.00;98408.81;5006421;28;20444;-53
2021/01/23 11:03:24;;;;;;;0.20;0.20;;;;;;;5.54;100.00;98396.50;5012327;28;20467;-52
2021/01/23 11:05:51;;;;;;;0.30;0.20;;;;;;;5.53;100.00;98394.78;4999082;28;20473;-52
2021/01/23 11:08:17;;;;;;;0.30;0.17;;;;;;;5.62;100.00;98389.16;5011128;28;20456;-52
2021/01/23 11:10:44;;;;;;;0.20;0.20;;;;;;;5.60;100.00;98385.69;5012011;28;20514;-53
2021/01/23 11:13:10;;;;;;;0.20;0.10;;;;;;;5.64;100.00;98379.41;5004903;28;20458;-53
2021/01/23 11:15:36;;;;;;;0.20;0.20;;;;;;;5.64;100.00;98381.19;5006338;28;20970;-53
2021/01/23 11:18:02;;;;;;;0.30;0.13;;;;;;;5.66;100.00;98374.06;5012226;28;20457;-53
2021/01/23 11:20:28;;;;;;;0.20;0.20;;;;;;;5.65;100.00;98369.72;4998283;28;20921;-53
2021/01/23 11:22:55;;;;;;;0.30;0.20;;;;;;;5.57;100.00;98370.00;5012563;28;20514;-53
2021/01/23 11:25:21;;;;;;;0.20;0.20;;;;;;;5.62;100.00;98372.50;5012064;28;20457;-53
2021/01/23 11:27:47;;;;;;;0.30;0.10;;;;;;;5.71;100.00;98376.50;5004923;28;20473;-53
2021/01/23 11:30:14;;;;;;;0.20;0.10;;;;;;;5.75;100.00;98372.81;5007610;28;20506;-52
2021/01/23 11:32:40;;;;;;;0.30;0.20;;;;;;;5.71;100.00;98365.97;5023714;28;20452;-53
2021/01/23 11:35:07;;;;;;;0.20;0.20;;;;;;;5.73;100.00;98364.13;4998702;28;20449;-52
2021/01/23 11:37:34;;;;;;;0.30;0.17;;;;;;;5.86;100.00;98362.72;5012205;28;20480;-52
2021/01/23 11:40:01;;;;;;;0.20;0.10;;;;;;;5.93;100.00;98367.72;4999027;28;20456;-53
2021/01/23 11:42:28;;;;;;;0.30;0.20;;;;;;;6.00;100.00;98355.13;5011951;28;21019;-52